x

Santa Monica Basin - 33nm Wsw Of Santa Monica, Ca (46025) Weather Station

9:20pm - Mon 20th Nov 2017 All times are PST. -8 hours from GMT.

  • Wind
    2mph, 4mph gusts
  • Sea Temp 64°f
  • Sea Pressure 1015.9mb
  • Santa Monica Basin - 33nm Wsw Of Santa Monica, Ca
  • Santa Monica Basin - 33nm Wsw Of Santa Monica, Ca

More Historic Weather Station data

Upgrade to MSW Pro to gain access to the past 30 days of data for over 8000 Wavebouys and Weather Stations around the globe.

Join

Comparision Forecast

View Surf forecast
   
Mon 11/20 9:20pm  -   -   -  2 4 mph 1015.9mb 64f
9:10pm  -   -   -  4 9 mph 1015.9mb 64f
9:00pm  -   -   -  2 7 mph 1016mb -
8:50pm 2.5ft 12s 5s 2 4 mph 1016mb 64f
8:40pm  -   -   -  4 7 mph 1016mb 64f
8:30pm  -   -   -  4 7 mph 1015.9mb -
8:20pm  -   -   -  7 7 mph 1015.9mb 64f
8:10pm  -   -   -  4 7 mph 1016mb 64f
8:00pm  -   -   -  4 7 mph 1015.9mb 64f
7:50pm 2.5ft 15s 5s 4 4 mph 1015.9mb 64f
7:40pm  -   -   -  2 4 mph 1015.8mb 64f
7:30pm  -   -   -  4 7 mph 1015.8mb 64f
7:20pm  -   -   -  4 7 mph 1015.7mb 64f
7:10pm  -   -   -  4 7 mph 1015.6mb 64f
7:00pm  -   -   -  4 9 mph 1015.4mb 64f
6:50pm 2.5ft 13s 6s 7 7 mph 1015.5mb 64f
6:40pm  -   -   -  9 11 mph 1015.5mb 64f
6:30pm  -   -   -  7 9 mph 1015.4mb 64f
6:20pm  -   -   -  7 11 mph 1015.4mb 64f
6:10pm  -   -   -  4 7 mph 1015.3mb 64f
6:00pm  -   -   -  4 4 mph 1015.3mb 64f
5:50pm 2.5ft 14s 5s 4 7 mph 1015.3mb 64f
5:40pm 2.5ft  -  5s 4 4 mph 1015.2mb 64f
5:30pm  -   -   -  2 4 mph 1015.1mb 64f
5:20pm  -   -   -  2 2 mph 1015.1mb 64f
5:10pm  -   -   -  2 2 mph 1015.1mb 64f
5:00pm  -   -   -  2 2 mph 1015.1mb 64f
4:50pm 2.5ft 16s 5s  -  2 mph 1015.1mb 64f
4:40pm  -   -   -   -  2 mph 1015mb 64f
4:30pm  -   -   -   -  2 mph 1015.1mb 64f
4:20pm  -   -   -  2 2 mph 1015.1mb 64f
4:10pm  -   -   -  2 2 mph 1015.1mb 64f
4:00pm  -   -   -  4 4 mph 1015.1mb 64f
3:50pm 2ft 14s 5s 4 4 mph 1015.1mb 64f
3:40pm 2ft  -  5s 4 7 mph 1015mb 64f
3:30pm  -   -   -  7 11 mph 1015mb 64f
3:20pm  -   -   -  9 11 mph 1015.1mb 64f
3:10pm  -   -   -  9 11 mph 1015.1mb 64f
3:00pm  -   -   -  4 9 mph 1015.1mb 64f
2:50pm 2.5ft 15s 5s 7 9 mph 1015.1mb 64f
2:40pm 2.5ft  -  5s 11 13 mph 1015.3mb 64f
2:30pm  -   -   -  11 13 mph 1015.2mb 64f
2:20pm  -   -   -  11 13 mph 1015.3mb 64f
2:10pm  -   -   -  11 13 mph 1015.3mb 64f
2:00pm  -   -   -  9 11 mph 1015.3mb 64f
1:50pm 2.5ft 15s 5s 9 11 mph 1015.6mb 64f
1:40pm 2.5ft  -  5s 9 11 mph 1015.7mb 64f
1:30pm  -   -   -  9 11 mph 1015.8mb 64f
1:20pm  -   -   -  9 11 mph 1015.8mb 64f
1:10pm  -   -   -  9 11 mph 1015.9mb 64f
1:00pm  -   -   -  11 11 mph 1015.8mb 64f
12:50pm 2.5ft 15s 5s 11 11 mph 1016mb 64f
12:40pm 2.5ft  -  5s 9 11 mph 1016.2mb 64f
12:30pm  -   -   -  11 13 mph 1016.2mb 64f
12:20pm  -   -   -  11 13 mph 1016.4mb 64f
12:10pm  -   -   -  9 13 mph 1016.5mb 64f
12:00pm  -   -   -  9 11 mph 1016.6mb 64f
11:50am 2.5ft 16s 5s 9 11 mph 1016.8mb 64f
11:40am  -   -   -  9 11 mph 1017.1mb 64f
11:30am  -   -   -  9 9 mph 1017.2mb 64f
11:20am  -   -   -  7 9 mph 1017.3mb 64f
11:10am  -   -   -  4 7 mph 1017.5mb 64f
11:00am  -   -   -  4 4 mph 1017.4mb 64f
10:50am 2.5ft 16s 5s 4 4 mph 1017.4mb 64f
10:40am 2.5ft  -  5s 4 7 mph 1017.3mb 64f
10:30am  -   -   -  4 4 mph 1017.6mb 64f
10:20am  -   -   -  4 7 mph 1017.5mb 64f
10:10am  -   -   -  4 7 mph 1017.5mb 64f
10:00am  -   -   -  4 7 mph 1017.2mb 64f
9:50am 2.5ft 5s 5s 4 4 mph 1017.4mb 64f
9:40am  -   -   -  2 4 mph 1017.3mb 64f
9:30am  -   -   -  2 4 mph 1017.2mb 64f
9:20am  -   -   -  4 4 mph 1017.1mb 64f
9:10am  -   -   -  4 7 mph 1017mb 64f
9:00am  -   -   -  4 7 mph 1016.9mb 64f
8:50am 3ft 16s 5s 7 7 mph 1016.8mb 64f
8:40am 3ft  -  5s 7 9 mph 1016.7mb 64f
8:30am  -   -   -  7 9 mph 1016.7mb -
8:20am  -   -   -  7 9 mph 1016.7mb 64f
8:10am  -   -   -  9 11 mph 1016.7mb -
8:00am  -   -   -  9 11 mph 1016.7mb 64f
7:50am 2.5ft 6s 5s 9 11 mph 1016.6mb 64f
7:40am 2.5ft  -  5s 9 11 mph 1016.6mb 64f
7:30am  -   -   -  9 11 mph 1016.7mb 64f
7:20am  -   -   -  9 11 mph 1016.3mb 64f
7:10am  -   -   -  9 11 mph 1016.3mb 64f
7:00am  -   -   -  11 13 mph 1016.2mb 64f
6:50am 3ft 6s 5s 11 13 mph 1016.3mb 64f
6:40am 3ft  -  5s 11 13 mph 1016.1mb 64f
6:30am  -   -   -  11 13 mph 1015.9mb 64f
6:20am  -   -   -  11 13 mph 1015.8mb 64f
6:10am  -   -   -  11 13 mph 1015.6mb 64f
6:00am  -   -   -  13 16 mph 1015.8mb 64f
5:50am 3ft 6s 5s 9 11 mph 1015.9mb 64f
5:40am 3ft  -  5s 7 9 mph 1015.7mb 64f
5:30am  -   -   -  7 9 mph 1015.7mb 64f
5:20am  -   -   -  4 7 mph 1015.6mb 64f
5:10am  -   -   -  4 4 mph 1015.4mb 64f
5:00am  -   -   -  2 4 mph 1015.2mb 64f
4:50am 3ft 6s 5s 2 4 mph 1015.1mb 64f
4:40am 3ft  -  5s 4 4 mph 1014.7mb 64f
4:30am  -   -   -  4 7 mph 1014.8mb 64f
4:20am  -   -   -  4 7 mph 1014.6mb 64f
4:10am  -   -   -  4 7 mph 1014.5mb 64f
4:00am  -   -   -  4 7 mph 1014.3mb 64f
3:50am 3ft 6s 5s 7 9 mph 1014.3mb 64f
3:40am 3ft  -  5s 7 11 mph 1014mb 64f
3:30am  -   -   -  7 9 mph 1014.1mb 64f
3:20am  -   -   -  7 9 mph 1014.5mb 64f
3:10am  -   -   -  9 11 mph 1014.7mb 64f
3:00am  -   -   -  9 11 mph 1014.8mb 64f
2:50am 3ft 16s 5s 11 13 mph 1015mb 64f
2:40am  -   -   -  11 13 mph 1015.2mb 64f
2:30am  -   -   -  11 13 mph 1015.3mb 64f
2:20am  -   -   -  11 13 mph 1015.4mb 64f
2:10am  -   -   -  11 13 mph 1015.2mb 64f
2:00am  -   -   -  11 13 mph 1015.2mb 64f
1:50am 3ft 6s 5s 11 13 mph 1015.3mb -
1:40am 3ft  -  5s 9 11 mph 1014.9mb 64f
1:30am  -   -   -  11 11 mph 1015mb 64f
1:20am  -   -   -  11 13 mph 1015.2mb 64f
1:10am  -   -   -  11 13 mph 1015.1mb 64f
1:00am  -   -   -  13 16 mph 1015mb 64f
12:50am 3ft 6s 5s 13 16 mph 1015mb 64f
12:40am 3ft  -  5s 13 16 mph 1015.2mb 64f
12:30am  -   -   -  16 18 mph 1015.3mb 64f
12:20am  -   -   -  16 18 mph 1015.6mb 64f
12:10am  -   -   -  16 18 mph 1015.6mb 64f
12:00am  -   -   -  16 18 mph 1015.6mb 64f
Sun 11/19 11:50pm 3ft 6s 5s 16 20 mph 1015.8mb 64f
11:40pm 3ft  -  5s 16 18 mph 1015.7mb 64f
11:30pm  -   -   -  13 18 mph 1015.6mb 64f
11:20pm  -   -   -  13 16 mph 1015.5mb -
11:10pm  -   -   -  13 16 mph 1015.6mb 64f
11:00pm  -   -   -  11 16 mph 1015.7mb 64f
10:50pm 3ft 16s 5s 9 11 mph 1015.6mb 64f
10:40pm 3ft  -  5s 7 9 mph 1015.6mb 64f
10:30pm  -   -   -  7 9 mph 1015.5mb 64f
10:20pm  -   -   -  7 9 mph 1015.5mb 64f
10:10pm  -   -   -  7 9 mph 1015.6mb 64f
10:00pm  -   -   -  4 9 mph 1015.9mb 64f
9:50pm 3.5ft 6s 5s 4 7 mph 1015.8mb 64f
9:40pm 3.5ft  -  5s 7 9 mph 1016mb 65f
9:30pm  -   -   -  4 7 mph 1016.2mb 65f
9:20pm  -   -   -  9 11 mph 1016.2mb 65f
9:10pm  -   -   -  9 11 mph 1016.2mb 65f
9:00pm  -   -   -  9 11 mph 1016.2mb 65f
8:50pm 2.5ft 16s 5s 9 11 mph 1016.3mb 65f
8:40pm  -   -   -  7 9 mph 1016.2mb 65f
8:30pm  -   -   -  7 9 mph 1015.9mb 65f
8:20pm  -   -   -  9 11 mph 1015.9mb 65f
8:10pm  -   -   -  9 11 mph 1016mb 65f
8:00pm  -   -   -  9 11 mph 1015.8mb 65f
7:50pm 2.5ft 13s 4s 11 11 mph 1015.8mb 65f
7:40pm  -   -   -  11 13 mph 1015.9mb 65f
7:30pm  -   -   -  11 13 mph 1015.9mb 65f
7:20pm  -   -   -  11 13 mph 1015.9mb 65f
7:10pm  -   -   -  13 16 mph 1015.8mb 65f
7:00pm  -   -   -  11 13 mph 1015.5mb 65f
6:50pm 2.5ft 14s 5s 11 13 mph 1015.6mb 65f
6:40pm 2.5ft  -  5s 11 13 mph 1015.9mb 65f
6:30pm  -   -   -  11 13 mph 1015.7mb 65f
6:20pm  -   -   -  11 13 mph 1015.6mb 65f
6:10pm  -   -   -  11 13 mph 1015.7mb 65f
6:00pm  -   -   -  11 13 mph 1015.6mb 65f
5:50pm 2.5ft 12s 5s 11 13 mph 1015.6mb 65f
5:40pm  -   -   -  11 13 mph 1015.6mb 65f
5:30pm  -   -   -  13 16 mph 1015.5mb 65f
5:20pm  -   -   -  11 16 mph 1015.4mb 65f
5:10pm  -   -   -  11 13 mph 1015.1mb 65f
5:00pm  -   -   -  11 13 mph 1015mb 65f
4:50pm 2.5ft 14s 5s 9 11 mph 1014.8mb 65f
4:40pm  -   -   -  9 11 mph 1014.6mb 65f
4:30pm  -   -   -  7 9 mph 1014.3mb 65f
4:20pm  -   -   -  9 11 mph 1014.4mb 65f
4:10pm  -   -   -  11 13 mph 1014.6mb 65f
4:00pm  -   -   -  11 13 mph 1014.7mb 65f
3:50pm 2.5ft 14s 5s 13 16 mph 1014.8mb 65f
3:40pm 2.5ft  -  5s 16 18 mph 1015.1mb 65f
3:30pm  -   -   -  13 16 mph 1015.1mb 65f
3:20pm  -   -   -  11 13 mph 1014.9mb 65f
3:10pm  -   -   -  11 13 mph 1014.8mb 65f
3:00pm  -   -   -  9 11 mph 1014.8mb -
2:50pm 2ft 13s 5s 9 11 mph 1014.7mb 65f
2:40pm  -   -   -  9 9 mph 1014.8mb 65f
2:30pm  -   -   -  7 9 mph 1014.8mb 65f
2:20pm  -   -   -  9 9 mph 1014.8mb 65f
2:10pm  -   -   -  9 11 mph 1014.9mb 65f
2:00pm  -   -   -  9 11 mph 1014.9mb 65f
1:50pm 2.5ft 17s 5s 9 11 mph 1015.1mb 65f
1:40pm 2.5ft  -  5s 11 13 mph 1015.1mb 65f
1:30pm  -   -   -  11 13 mph 1015.2mb 65f
1:20pm  -   -   -  11 13 mph 1015.3mb 65f
1:10pm  -   -   -  11 11 mph 1015.3mb 65f
1:00pm  -   -   -  9 11 mph 1015.4mb 65f
12:50pm 2.5ft 13s 5s 9 11 mph 1015.5mb 65f
12:40pm 2.5ft  -  5s 7 9 mph 1015.5mb 65f
12:30pm  -   -   -  7 9 mph 1015.6mb 65f
12:20pm  -   -   -  7 9 mph 1015.6mb 65f
12:10pm  -   -   -  9 9 mph 1015.7mb 65f
12:00pm  -   -   -  9 11 mph 1015.9mb 65f
11:50am 2.5ft 11s 5s 9 11 mph 1016.2mb 65f
11:40am 2.5ft  -  5s 9 11 mph 1016.3mb 65f
11:30am  -   -   -  9 11 mph 1016.7mb 65f
11:20am  -   -   -  11 13 mph 1017mb 65f
11:10am  -   -   -  11 13 mph 1017.1mb 65f
11:00am  -   -   -  9 11 mph 1017.3mb 65f
10:50am 2.5ft 13s 5s 9 11 mph 1017.6mb 65f
10:40am 2.5ft  -  5s 9 11 mph 1017.8mb 65f
10:30am  -   -   -  9 9 mph 1017.9mb 65f
10:20am  -   -   -  4 9 mph 1018mb 65f
10:10am  -   -   -  2 2 mph 1018.1mb 65f
10:00am  -   -   -   -  2 mph 1018.1mb 65f
9:50am 3ft 5s 5s  -  2 mph 1018.2mb 65f
9:40am  -   -   -  2 2 mph 1018.3mb 65f
9:30am  -   -   -  2 4 mph 1018.2mb 65f
9:20am  -   -   -  4 4 mph 1018.2mb 65f
9:10am  -   -   -  2 4 mph 1018.3mb 65f
9:00am  -   -   -  4 4 mph 1018.1mb 65f
8:50am 3.5ft 17s 5s 4 7 mph 1018.1mb 65f
8:40am 3.5ft  -  5s 4 7 mph 1018.1mb 65f
8:30am  -   -   -  7 9 mph 1017.9mb 65f
8:20am  -   -   -  9 9 mph 1017.7mb 65f
8:10am  -   -   -  9 11 mph 1017.6mb 65f
8:00am  -   -   -  9 11 mph 1017.5mb 65f
7:50am 3.5ft 12s 5s 9 11 mph 1017.4mb 65f
7:40am  -   -   -  9 11 mph 1017.4mb 65f
7:30am  -   -   -  11 11 mph 1017.2mb 65f
7:20am  -   -   -  11 13 mph 1017.2mb 65f
7:10am  -   -   -  11 13 mph 1017.1mb 65f
7:00am  -   -   -  11 13 mph 1017.1mb 65f
6:50am 3.5ft 5s 5s 13 16 mph 1017.2mb 65f
6:40am 3.5ft  -  5s 13 16 mph 1017mb 65f
6:30am  -   -   -  16 18 mph 1017mb 65f
6:20am  -   -   -  16 18 mph 1016.9mb 65f
6:10am  -   -   -  16 18 mph 1016.8mb 65f
6:00am  -   -   -  16 20 mph 1017mb 65f
5:50am 3.5ft 5s 5s 16 20 mph 1017mb 65f
5:40am 3.5ft  -  5s 16 20 mph 1017.1mb 65f
5:30am  -   -   -  18 20 mph 1017.3mb 65f
5:20am  -   -   -  16 20 mph 1017.3mb -
5:10am  -   -   -  18 20 mph 1017.2mb -
5:00am  -   -   -  16 20 mph 1017mb -
4:50am 3ft 13s 5s 18 20 mph 1016.8mb 65f
4:40am  -   -   -  18 20 mph 1016.8mb 65f
4:30am  -   -   -  16 20 mph 1016.9mb -
4:20am  -   -   -  18 20 mph 1016.5mb 65f
4:10am  -   -   -  18 22 mph 1016.5mb 65f
4:00am  -   -   -  18 22 mph 1016.6mb 65f
3:50am 3.5ft 5s 5s 18 20 mph 1016.7mb 65f
3:40am 3.5ft  -  5s 18 22 mph 1016.7mb 65f
3:30am  -   -   -  18 20 mph 1017mb 65f
3:20am  -   -   -  18 20 mph 1017.2mb 65f
3:10am  -   -   -  16 20 mph 1017.2mb 65f
3:00am  -   -   -  16 18 mph 1017.3mb 65f
2:50am 3ft 11s 5s 13 16 mph 1017.3mb 65f
2:40am  -   -   -  13 16 mph 1017.3mb 65f
2:30am  -   -   -  13 16 mph 1017.4mb 65f
2:20am  -   -   -  11 13 mph 1017.3mb 65f
2:10am  -   -   -  13 16 mph 1017.2mb 65f
2:00am  -   -   -  11 13 mph 1017.1mb -
1:50am 3.5ft 5s 5s 11 13 mph 1017mb 65f
1:40am  -   -   -  13 16 mph 1017.2mb 65f
1:30am  -   -   -  13 16 mph 1017.4mb -
1:20am  -   -   -  16 18 mph 1017.6mb 65f
1:10am  -   -   -  16 20 mph 1017.8mb 65f
1:00am  -   -   -  18 20 mph 1017.8mb 65f
12:50am 3ft 4s 4s 18 22 mph 1017.9mb 65f
12:40am  -   -   -  18 25 mph 1017.8mb 65f
12:30am  -   -   -  18 22 mph 1018.1mb -
12:20am  -   -   -  18 22 mph 1018mb 65f
12:10am  -   -   -  18 20 mph 1018.1mb 65f
12:00am  -   -   -  18 20 mph 1018mb 65f
Sat 11/18 11:50pm 3ft 13s 4s 18 20 mph 1017.9mb 65f
11:40pm  -   -   -  18 22 mph 1018.1mb 65f
11:30pm  -   -   -  18 22 mph 1018.1mb 65f
11:20pm  -   -   -  18 22 mph 1018.4mb 65f
11:10pm  -   -   -  18 22 mph 1018.6mb 65f
11:00pm  -   -   -  18 22 mph 1018.6mb 65f
10:50pm 3ft 12s 4s 18 20 mph 1018.6mb 65f
10:40pm  -   -   -  18 20 mph 1018.7mb 65f
10:30pm  -   -   -  18 22 mph 1018.7mb 65f
10:20pm  -   -   -  18 20 mph 1018.8mb 65f
10:10pm  -   -   -  16 20 mph 1018.7mb 65f
10:00pm  -   -   -  18 22 mph 1018.6mb 65f
9:50pm 3ft 12s 4s 16 20 mph 1018.5mb 66f
9:40pm  -   -   -  16 20 mph 1018.4mb 66f
9:30pm  -   -   -  18 20 mph 1018.5mb -
9:20pm  -   -   -  18 20 mph 1018.5mb 66f
9:10pm  -   -   -  18 22 mph 1018.6mb 66f
9:00pm  -   -   -  18 20 mph 1018.4mb 66f
8:50pm 2.5ft 14s 4s 18 22 mph 1018.1mb 66f
8:40pm  -   -   -  16 20 mph 1018mb 66f
8:30pm  -   -   -  16 20 mph 1018mb 66f
8:20pm  -   -   -  16 18 mph 1018.1mb -
8:10pm  -   -   -  16 20 mph 1018.1mb 66f
8:00pm  -   -   -  16 20 mph 1018mb 66f
7:50pm 3ft 13s 5s 16 20 mph 1017.9mb 66f
7:40pm  -   -   -  16 18 mph 1018mb 66f
7:30pm  -   -   -  16 18 mph 1018.1mb 66f
7:20pm  -   -   -  16 18 mph 1018.1mb 66f
7:10pm  -   -   -  16 18 mph 1018.1mb 66f
7:00pm  -   -   -  16 20 mph 1018.1mb 66f
6:50pm 3ft 13s 5s 16 18 mph 1018.1mb 66f
6:40pm  -   -   -  16 18 mph 1018.1mb 66f
6:30pm  -   -   -  16 18 mph 1018.1mb 66f
6:20pm  -   -   -  16 20 mph 1018.1mb 66f
6:10pm  -   -   -  18 20 mph 1018.1mb 66f
6:00pm  -   -   -  18 20 mph 1018mb 66f
5:50pm 2.5ft 13s 5s 18 20 mph 1017.9mb 66f
5:40pm  -   -   -  18 20 mph 1017.9mb 66f
5:30pm  -   -   -  18 20 mph 1017.9mb 66f
5:20pm  -   -   -  16 20 mph 1017.9mb 66f
5:10pm  -   -   -  16 20 mph 1017.9mb 66f
5:00pm  -   -   -  16 18 mph 1018mb 66f
4:50pm 2.5ft  -  5s 16 20 mph 1017.9mb 66f
4:40pm 2.5ft 13s 5s  -  mph - -
4:30pm  -   -   -  13 18 mph 1018.2mb 66f
4:20pm  -   -   -  13 16 mph 1018.1mb -
4:10pm  -   -   -  11 13 mph 1018.1mb 66f
4:00pm  -   -   -  11 13 mph 1018.2mb 66f
3:50pm 2.5ft 13s 6s 11 13 mph 1018.3mb 66f
3:40pm  -   -   -  11 13 mph 1018.3mb 66f
3:30pm  -   -   -  11 13 mph 1018.3mb 66f
3:20pm  -   -   -  11 13 mph 1018.5mb 66f
3:10pm  -   -   -  11 13 mph 1018.5mb 66f
3:00pm  -   -   -  11 13 mph 1018.5mb 66f
2:50pm 2.5ft 13s 7s 11 11 mph 1018.5mb 66f
2:40pm 2.5ft  -  7s 11 11 mph 1018.5mb 67f
2:30pm  -   -   -  9 11 mph 1018.5mb 67f
2:20pm  -   -   -  9 11 mph 1018.5mb 67f
2:10pm  -   -   -  9 11 mph 1018.6mb 67f
2:00pm  -   -   -  9 11 mph 1018.7mb 66f
1:50pm 2.5ft 13s 7s 9 11 mph 1018.8mb 67f
1:40pm  -   -   -  7 9 mph 1018.9mb 67f
1:30pm  -   -   -  7 9 mph 1018.9mb 67f
1:20pm  -   -   -  4 4 mph 1018.7mb 67f
1:10pm  -   -   -  4 4 mph 1018.9mb 67f
1:00pm  -   -   -  2 4 mph 1019mb 66f
12:50pm 2.5ft 13s 6s 4 7 mph 1019.2mb 67f
12:40pm 2.5ft  -  6s 4 7 mph 1019.5mb 66f
12:30pm  -   -   -  4 7 mph 1019.6mb 66f
12:20pm  -   -   -  7 9 mph 1019.9mb 66f
12:10pm  -   -   -  4 7 mph 1020mb 66f
12:00pm  -   -   -  4 7 mph 1020mb 66f
11:50am 2.5ft 13s 6s 4 7 mph 1020.3mb 66f
11:40am 2.5ft  -  6s 2 4 mph 1020.3mb 66f
11:30am  -   -   -   -  2 mph 1020.5mb 66f
11:20am  -   -   -   -  2 mph 1020.7mb 66f
11:10am  -   -   -  2 4 mph 1020.7mb 66f
11:00am  -   -   -  2 4 mph 1020.9mb 66f
10:50am 2.5ft 13s 6s 2 4 mph 1021.1mb 66f
10:40am 2.5ft  -  6s 2 4 mph 1021.3mb 66f
10:30am  -   -   -  2 4 mph 1021.4mb 66f
10:20am  -   -   -  2 4 mph 1021.5mb 66f
10:10am  -   -   -   -  2 mph 1021.3mb 66f
10:00am  -   -   -  2 4 mph 1021.2mb 66f
9:50am 2.5ft 13s 6s 2 4 mph 1021.1mb 66f
9:40am 2.5ft  -  6s 4 7 mph 1020.8mb 66f
9:30am  -   -   -  4 7 mph 1020.8mb 66f
9:20am  -   -   -  4 7 mph 1020.9mb 66f
9:10am  -   -   -  7 9 mph 1021.1mb 66f
9:00am  -   -   -  9 11 mph 1020.8mb 66f
8:50am 3ft 14s 6s 9 11 mph 1020.8mb 66f
8:40am 3ft  -  6s 9 11 mph 1020.9mb 66f
8:30am  -   -   -  9 11 mph 1020.9mb 66f
8:20am  -   -   -  9 11 mph 1020.8mb 66f
8:10am  -   -   -  11 11 mph 1020.8mb 66f
8:00am  -   -   -  9 11 mph 1020.8mb 66f
7:50am 3ft 14s 6s 11 11 mph 1020.8mb 66f
7:40am 3ft  -  6s 11 13 mph 1020.7mb 66f
7:30am  -   -   -  11 13 mph 1020.6mb 66f
7:20am  -   -   -  9 11 mph 1020.6mb 66f
7:10am  -   -   -  9 11 mph 1020.4mb 66f
7:00am  -   -   -  7 9 mph 1020.2mb 66f
6:50am 3ft 13s 5s 7 9 mph 1020mb 66f
6:40am 3ft  -  5s 7 9 mph 1019.8mb 66f
6:30am  -   -   -  7 9 mph 1019.7mb 66f
6:20am  -   -   -  4 7 mph 1019.6mb 66f
6:10am  -   -   -  4 7 mph 1019.5mb 66f
6:00am  -   -   -  4 7 mph 1019.5mb -
5:50am 3ft 11s 5s 4 7 mph 1019.3mb 66f
5:40am  -   -   -  4 7 mph 1019.4mb 66f
5:30am  -   -   -  2 4 mph 1019.2mb 66f
5:20am  -   -   -  2 4 mph 1019.2mb 66f
5:10am  -   -   -  4 4 mph 1019.3mb 66f
5:00am  -   -   -  4 7 mph 1019.2mb 66f
4:50am 3ft 6s 5s 7 7 mph 1019.3mb 66f
4:40am 3ft  -  5s 7 9 mph 1019.2mb -
4:30am  -   -   -  7 9 mph 1019.2mb 66f
4:20am  -   -   -  7 9 mph 1019.2mb 66f
4:10am  -   -   -  9 9 mph 1019.1mb 66f
4:00am  -   -   -  7 9 mph 1019.2mb 66f
3:50am 3.5ft 12s 5s 7 9 mph 1019.2mb 66f
3:40am  -   -   -  9 11 mph 1019.4mb 66f
3:30am  -   -   -  7 9 mph 1019.5mb 66f
3:20am  -   -   -  7 9 mph 1019.5mb 66f
3:10am  -   -   -  9 9 mph 1019.6mb 65f
3:00am  -   -   -  7 9 mph 1019.5mb 65f
2:50am 3.5ft 14s 6s 7 9 mph 1019.5mb 65f
2:40am 3.5ft  -  6s 7 9 mph 1019.5mb 65f
2:30am  -   -   -  7 9 mph 1019.5mb 65f
2:20am  -   -   -  7 9 mph 1019.5mb 65f
2:10am  -   -   -  7 9 mph 1019.5mb -
2:00am  -   -   -  7 9 mph 1019.4mb 65f
1:50am 3.5ft 13s 6s 9 11 mph 1019.3mb 65f
1:40am 3.5ft  -  6s 9 9 mph 1019.3mb 65f
1:30am  -   -   -  7 9 mph 1019.2mb 65f
1:20am  -   -   -  9 11 mph 1019.2mb 65f
1:10am  -   -   -  4 7 mph 1019.2mb 65f
1:00am  -   -   -  4 7 mph 1019.4mb 65f
12:50am 3.5ft 5s 5s 2 4 mph 1019.2mb 65f
12:40am 3.5ft  -  5s 4 7 mph 1019.2mb 65f
12:30am  -   -   -  4 7 mph 1019.1mb 65f
12:20am  -   -   -  7 9 mph 1019.2mb 65f
12:10am  -   -   -  9 11 mph 1019.2mb 65f
12:00am  -   -   -  9 11 mph 1019.2mb 65f
Fri 11/17 11:50pm 3.5ft 5s 5s 9 11 mph 1019.3mb 66f
11:40pm 3.5ft  -  5s 9 13 mph 1019.2mb 66f
11:30pm  -   -   -  7 9 mph 1019.2mb 66f
11:20pm  -   -   -  4 11 mph 1019mb 66f
11:10pm  -   -   -  7 13 mph 1019mb 66f
11:00pm  -   -   -  11 13 mph 1019mb -
10:50pm 3.5ft 14s 5s 9 13 mph 1019mb 66f
10:40pm 3.5ft  -  5s 11 16 mph 1019mb 66f
10:30pm  -   -   -  11 16 mph 1018.8mb 66f
10:20pm  -   -   -  11 13 mph 1018.7mb 66f
10:10pm  -   -   -  11 13 mph 1018.6mb 66f
10:00pm  -   -   -  11 13 mph 1018.3mb 66f
9:50pm 3.5ft 14s 5s 11 13 mph 1018.2mb 66f
9:40pm 3.5ft  -  5s 11 16 mph 1018.2mb 66f
9:30pm  -   -   -  9 13 mph 1018.1mb 66f
9:20pm  -   -   -  11 13 mph 1017.9mb 66f
9:10pm  -   -   -  13 16 mph 1017.8mb 66f
9:00pm  -   -   -  13 18 mph 1017.8mb 66f
8:50pm 4ft 5s 5s 16 18 mph 1017.8mb 66f
8:40pm  -   -   -  16 18 mph 1017.6mb 66f
8:30pm  -   -   -  16 20 mph 1017.7mb 66f
8:20pm  -   -   -  18 20 mph 1017.5mb 66f
8:10pm  -   -   -  18 22 mph 1017.7mb 66f
8:00pm  -   -   -  20 25 mph 1017.8mb 66f
7:50pm 4ft 5s 5s 20 25 mph 1017.5mb 66f
7:40pm  -   -   -  18 22 mph 1017.5mb 66f
7:30pm  -   -   -  16 20 mph 1017.5mb 66f
7:20pm  -   -   -  18 22 mph 1017.4mb -
7:10pm  -   -   -  18 22 mph 1017.3mb 66f
7:00pm  -   -   -  16 20 mph 1017.4mb 66f
6:50pm 3.5ft 14s 5s 16 18 mph 1017.5mb 66f
6:40pm 3.5ft  -  5s 16 20 mph 1017.5mb 66f
6:30pm  -   -   -  16 20 mph 1017.5mb 66f
6:20pm  -   -   -  13 18 mph 1017.3mb 66f
6:10pm  -   -   -  9 13 mph 1017.2mb 66f
6:00pm  -   -   -  4 9 mph 1017mb 66f
5:50pm 3ft 14s 5s 4 9 mph 1017mb 66f
5:40pm 3ft  -  5s 7 9 mph 1016.9mb 66f
5:30pm  -   -   -  7 9 mph 1016.8mb 66f
5:20pm  -   -   -  2 7 mph 1016.7mb 66f
5:10pm  -   -   -   -  2 mph 1016.5mb 66f
5:00pm  -   -   -  2 4 mph 1016.4mb 66f
4:50pm 2.5ft 15s 5s 2 4 mph 1016.5mb 66f
4:40pm 2.5ft  -  5s 4 7 mph 1016.2mb 66f
4:30pm  -   -   -  7 9 mph 1016.2mb 66f
4:20pm  -   -   -  7 11 mph 1016.3mb 66f
4:10pm  -   -   -  11 16 mph 1016.3mb 66f
4:00pm  -   -   -  13 18 mph 1016.2mb 66f
3:50pm 2.5ft 15s 5s 16 18 mph 1016.4mb 66f
3:40pm 2.5ft  -  5s 13 18 mph 1016.5mb 66f
3:30pm  -   -   -  13 18 mph 1016.5mb 66f
3:20pm  -   -   -  13 18 mph 1016.5mb 66f
3:10pm  -   -   -  16 20 mph 1016.5mb 66f
3:00pm  -   -   -  16 20 mph 1016.5mb 66f
2:50pm 2.5ft 12s 5s 13 18 mph 1016.5mb 66f
2:40pm 2.5ft  -  5s 13 18 mph 1016.6mb 66f
2:30pm  -   -   -  13 16 mph 1016.7mb -
2:20pm  -   -   -  11 16 mph 1016.9mb 66f
2:10pm  -   -   -  7 11 mph 1016.9mb 66f
2:00pm  -   -   -  4 9 mph 1017mb 66f
1:50pm 2.5ft 14s 6s 2 9 mph 1016.9mb 66f
1:40pm 2.5ft  -  6s 2 4 mph 1017mb 66f
1:30pm  -   -   -  2 4 mph 1017mb 66f
1:20pm  -   -   -  2 4 mph 1016.9mb 66f
1:10pm  -   -   -  2 4 mph 1017.1mb 66f
1:00pm  -   -   -  2 4 mph 1017.2mb 66f
12:50pm 2.5ft 15s 6s 2 4 mph 1017.2mb 66f
12:40pm  -   -   -  2 4 mph 1017.1mb 66f
12:30pm  -   -   -  4 7 mph 1017.2mb 66f
12:20pm  -   -   -  4 7 mph 1017.5mb 66f
12:10pm  -   -   -  4 7 mph 1017.6mb 66f
12:00pm  -   -   -  4 7 mph 1017.7mb 66f
11:50am 2.5ft 11s 6s 4 7 mph 1017.9mb 66f
11:40am  -   -   -  4 7 mph 1017.9mb 66f
11:30am  -   -   -  4 7 mph 1018mb 66f
11:20am  -   -   -  7 7 mph 1018.1mb 66f
11:10am  -   -   -  9 13 mph 1018.4mb 66f
11:00am  -   -   -  11 13 mph 1018.5mb 66f
10:50am 2.5ft 12s 5s 11 13 mph 1018.5mb 66f
10:40am 2.5ft  -  5s 9 13 mph 1018.7mb 66f
10:30am  -   -   -  9 11 mph 1018.7mb 66f
10:20am  -   -   -  9 11 mph 1018.6mb 66f
10:10am  -   -   -  9 9 mph 1018.6mb -
10:00am  -   -   -  7 9 mph 1018.6mb 66f
9:50am 2.5ft 15s 5s 7 9 mph 1018.5mb 66f
9:40am 2.5ft  -  5s 7 9 mph 1018.4mb 66f
9:30am  -   -   -  9 9 mph 1018.3mb 66f
9:20am  -   -   -  9 11 mph 1018.3mb 66f
9:10am  -   -   -  11 13 mph 1018.3mb 66f
9:00am  -   -   -  11 13 mph 1018.1mb 66f
8:50am 2.5ft 12s 5s 11 13 mph 1018.1mb 66f
8:40am 2.5ft  -  5s 9 13 mph 1017.9mb 66f
8:30am  -   -   -  7 11 mph 1018.1mb -
8:20am  -   -   -  9 11 mph 1018.1mb 66f
8:10am  -   -   -  9 11 mph 1017.8mb 66f
8:00am  -   -   -  9 11 mph 1017.8mb 66f
7:50am 2.5ft 12s 6s 9 11 mph 1017.6mb 66f
7:40am 2.5ft  -  6s 9 11 mph 1017.4mb 66f
7:30am  -   -   -  11 16 mph 1017.4mb 66f
7:20am  -   -   -  13 16 mph 1017mb 66f
7:10am  -   -   -  11 16 mph 1017mb 66f
7:00am  -   -   -  11 16 mph 1016.8mb 66f
6:50am 2.5ft 13s 7s 9 13 mph 1016.8mb 66f
6:40am 2.5ft  -  7s 7 9 mph 1016.5mb 66f
6:30am  -   -   -  7 9 mph 1016.8mb 66f